Private Wetterstation Sandau
Wetterdaten: Sonntag, 22.04.2012
Datum Zeit Temp. A. Feuchte A. Luftdruck Regen Wind Richtung Richtung Taupunkt Windchill
22.04.2012 00:01 8,9 C 71 % 1002,4 hPa 0,0 l/m 0,0 km/h (0 Bft) S-SW 202 3,9 C 8,9 C
22.04.2012 00:06 8,9 C 72 % 1002,6 hPa 0,0 l/m 1,4 km/h (1 Bft) S-SW 202 4,1 C 8,9 C
22.04.2012 00:11 8,9 C 72 % 1002,5 hPa 0,0 l/m 0,0 km/h (0 Bft) S-SW 202 4,1 C 8,9 C
22.04.2012 00:16 8,9 C 73 % 1002,7 hPa 0,0 l/m 1,8 km/h (1 Bft) S-SW 202 4,3 C 8,9 C
22.04.2012 00:21 8,9 C 73 % 1002,7 hPa 0,0 l/m 0,0 km/h (0 Bft) S-SW 202 4,3 C 8,9 C
22.04.2012 00:26 8,9 C 73 % 1002,5 hPa 0,0 l/m 0,0 km/h (0 Bft) S-SW 202 4,3 C 8,9 C
22.04.2012 00:31 8,8 C 73 % 1002,6 hPa 0,0 l/m 0,0 km/h (0 Bft) S-SW 202 4,2 C 8,8 C
22.04.2012 00:36 8,8 C 73 % 1002,8 hPa 0,0 l/m 0,0 km/h (0 Bft) S-SW 202 4,2 C 8,8 C
22.04.2012 00:41 8,6 C 73 % 1002,6 hPa 0,0 l/m 0,0 km/h (0 Bft) S-SW 202 4,0 C 8,6 C
22.04.2012 00:46 8,5 C 74 % 1002,7 hPa 0,0 l/m 2,9 km/h (1 Bft) SO 135 4,1 C 8,5 C
22.04.2012 00:51 8,4 C 74 % 1002,8 hPa 0,0 l/m 0,0 km/h (0 Bft) SO 135 4,0 C 8,4 C
22.04.2012 00:56 8,4 C 74 % 1002,9 hPa 0,0 l/m 0,0 km/h (0 Bft) S-SO 157 4,0 C 8,4 C
22.04.2012 01:01 8,4 C 74 % 1002,7 hPa 0,0 l/m 0,0 km/h (0 Bft) S-SO 157 4,0 C 8,4 C
22.04.2012 01:06 8,4 C 74 % 1002,6 hPa 0,0 l/m 0,0 km/h (0 Bft) S-SO 157 4,0 C 8,4 C
22.04.2012 01:11 8,4 C 74 % 1002,7 hPa 0,0 l/m 0,0 km/h (0 Bft) S-SO 157 4,0 C 8,4 C
22.04.2012 01:16 8,3 C 74 % 1002,6 hPa 0,0 l/m 0,0 km/h (0 Bft) S-SO 157 3,9 C 8,3 C
22.04.2012 01:21 8,3 C 74 % 1002,7 hPa 0,0 l/m 0,0 km/h (0 Bft) S-SO 157 3,9 C 8,3 C
22.04.2012 01:26 8,3 C 74 % 1002,7 hPa 0,0 l/m 0,0 km/h (0 Bft) S-SO 157 3,9 C 8,3 C
22.04.2012 01:31 8,3 C 74 % 1002,8 hPa 0,0 l/m 1,4 km/h (1 Bft) SO 135 3,9 C 8,3 C
22.04.2012 01:36 8,2 C 75 % 1002,6 hPa 0,0 l/m 4,0 km/h (1 Bft) SO 135 4,0 C 8,2 C
22.04.2012 01:41 8,1 C 75 % 1002,7 hPa 0,0 l/m 2,5 km/h (1 Bft) SO 135 3,9 C 8,1 C
22.04.2012 01:46 7,9 C 75 % 1002,7 hPa 0,0 l/m 1,8 km/h (1 Bft) SO 135 3,7 C 7,9 C
22.04.2012 01:51 7,9 C 75 % 1002,7 hPa 0,0 l/m 1,4 km/h (1 Bft) SO 135 3,7 C 7,9 C
22.04.2012 01:56 7,9 C 75 % 1002,8 hPa 0,0 l/m 1,1 km/h (1 Bft) SO 135 3,7 C 7,9 C
22.04.2012 02:01 7,9 C 76 % 1002,6 hPa 0,0 l/m 1,8 km/h (1 Bft) SO 135 3,9 C 7,9 C
22.04.2012 02:06 7,9 C 76 % 1002,6 hPa 0,0 l/m 0,0 km/h (0 Bft) SO 135 3,9 C 7,9 C
22.04.2012 02:11 7,9 C 76 % 1002,6 hPa 0,0 l/m 0,0 km/h (0 Bft) SO 135 3,9 C 7,9 C
22.04.2012 02:16 8,1 C 76 % 1002,7 hPa 0,0 l/m 1,8 km/h (1 Bft) SO 135 4,1 C 8,1 C
22.04.2012 02:21 8,1 C 75 % 1002,7 hPa 0,0 l/m 0,0 km/h (0 Bft) SO 135 3,9 C 8,1 C
22.04.2012 02:26 8,2 C 75 % 1002,6 hPa 0,0 l/m 0,0 km/h (0 Bft) S-SO 157 4,0 C 8,2 C
22.04.2012 02:31 8,3 C 75 % 1002,6 hPa 0,0 l/m 2,5 km/h (1 Bft) S-SO 157 4,1 C 8,3 C
22.04.2012 02:36 8,3 C 75 % 1002,7 hPa 0,0 l/m 3,2 km/h (1 Bft) S-SW 202 4,1 C 8,3 C
22.04.2012 02:41 8,3 C 75 % 1003,0 hPa 0,0 l/m 2,5 km/h (1 Bft) S-SO 157 4,1 C 8,3 C
22.04.2012 02:46 8,3 C 75 % 1003,0 hPa 0,0 l/m 3,2 km/h (1 Bft) S 180 4,1 C 8,3 C
22.04.2012 02:51 8,3 C 75 % 1003,0 hPa 0,0 l/m 1,4 km/h (1 Bft) S 180 4,1 C 8,3 C
22.04.2012 02:56 8,3 C 75 % 1002,9 hPa 0,0 l/m 3,2 km/h (1 Bft) S-SO 157 4,1 C 8,3 C
22.04.2012 03:01 8,3 C 75 % 1002,9 hPa 0,0 l/m 0,0 km/h (0 Bft) S 180 4,1 C 8,3 C
22.04.2012 03:06 8,3 C 75 % 1003,0 hPa 0,0 l/m 1,1 km/h (1 Bft) S 180 4,1 C 8,3 C
22.04.2012 03:11 8,3 C 75 % 1003,0 hPa 0,0 l/m 0,0 km/h (0 Bft) S 180 4,1 C 8,3 C
22.04.2012 03:16 8,3 C 76 % 1003,1 hPa 0,0 l/m 0,0 km/h (0 Bft) S-SO 157 4,3 C 8,3 C
22.04.2012 03:21 8,3 C 76 % 1003,1 hPa 0,0 l/m 0,0 km/h (0 Bft) S-SO 157 4,3 C 8,3 C
22.04.2012 03:26 8,3 C 76 % 1003,2 hPa 0,0 l/m 0,0 km/h (0 Bft) SW 225 4,3 C 8,3 C
22.04.2012 03:31 8,3 C 76 % 1003,0 hPa 0,0 l/m 0,0 km/h (0 Bft) SW 225 4,3 C 8,3 C
22.04.2012 03:36 8,4 C 76 % 1003,1 hPa 0,0 l/m 1,4 km/h (1 Bft) SW 225 4,4 C 8,4 C
22.04.2012 03:41 8,4 C 76 % 1003,1 hPa 0,0 l/m 2,2 km/h (1 Bft) SW 225 4,4 C 8,4 C
22.04.2012 03:46 8,4 C 76 % 1003,1 hPa 0,0 l/m 2,2 km/h (1 Bft) SW 225 4,4 C 8,4 C
22.04.2012 03:51 8,4 C 76 % 1003,1 hPa 0,0 l/m 1,4 km/h (1 Bft) SW 225 4,4 C 8,4 C
22.04.2012 03:56 8,4 C 77 % 1003,0 hPa 0,0 l/m 0,0 km/h (0 Bft) S-SW 202 4,6 C 8,4 C
22.04.2012 04:01 8,4 C 77 % 1003,0 hPa 0,0 l/m 2,5 km/h (1 Bft) S-SW 202 4,6 C 8,4 C
22.04.2012 04:06 8,4 C 77 % 1003,1 hPa 0,0 l/m 1,1 km/h (1 Bft) S-SW 202 4,6 C 8,4 C
22.04.2012 04:11 8,4 C 77 % 1003,0 hPa 0,0 l/m 1,4 km/h (1 Bft) S-SW 202 4,6 C 8,4 C
22.04.2012 04:16 8,4 C 77 % 1003,0 hPa 0,0 l/m 0,0 km/h (0 Bft) S-SW 202 4,6 C 8,4 C
22.04.2012 04:21 8,4 C 77 % 1002,9 hPa 0,0 l/m 1,8 km/h (1 Bft) S-SO 157 4,6 C 8,4 C
22.04.2012 04:26 8,4 C 77 % 1003,0 hPa 0,0 l/m 1,8 km/h (1 Bft) S 180 4,6 C 8,4 C
22.04.2012 04:31 8,4 C 77 % 1003,1 hPa 0,0 l/m 3,6 km/h (1 Bft) SW 225 4,6 C 8,4 C
22.04.2012 04:36 8,4 C 77 % 1003,1 hPa 0,0 l/m 5,8 km/h (2 Bft) S-SW 202 4,6 C 7,7 C
22.04.2012 04:41 8,4 C 77 % 1003,2 hPa 0,0 l/m 2,2 km/h (1 Bft) S-SO 157 4,6 C 8,4 C
22.04.2012 04:46 8,4 C 77 % 1003,3 hPa 0,0 l/m 0,0 km/h (0 Bft) S-SW 202 4,6 C 8,4 C
22.04.2012 04:51 8,4 C 78 % 1003,0 hPa 0,0 l/m 4,3 km/h (1 Bft) S-SW 202 4,8 C 8,4 C
22.04.2012 04:56 8,3 C 78 % 1003,1 hPa 0,0 l/m 5,4 km/h (1 Bft) S 180 4,7 C 7,7 C
22.04.2012 05:01 8,3 C 78 % 1003,2 hPa 0,0 l/m 4,3 km/h (1 Bft) SW 225 4,7 C 8,3 C
22.04.2012 05:06 8,3 C 78 % 1003,2 hPa 0,0 l/m 5,4 km/h (1 Bft) S-SW 202 4,7 C 7,7 C
22.04.2012 05:11 8,4 C 78 % 1003,3 hPa 0,0 l/m 2,5 km/h (1 Bft) S-SW 202 4,8 C 8,4 C
22.04.2012 05:16 8,4 C 79 % 1003,3 hPa 0,0 l/m 0,0 km/h (0 Bft) S 180 5,0 C 8,4 C
22.04.2012 05:21 8,4 C 79 % 1003,3 hPa 0,0 l/m 4,0 km/h (1 Bft) S 180 5,0 C 8,4 C
22.04.2012 05:26 8,4 C 79 % 1003,4 hPa 0,0 l/m 3,6 km/h (1 Bft) S-SW 202 5,0 C 8,4 C
22.04.2012 05:31 8,3 C 80 % 1003,4 hPa 0,0 l/m 9,4 km/h (2 Bft) SW 225 5,1 C 6,7 C
22.04.2012 05:36 8,3 C 80 % 1003,4 hPa 0,0 l/m 4,3 km/h (1 Bft) W-SW 247 5,1 C 8,3 C
22.04.2012 05:41 8,2 C 80 % 1003,4 hPa 0,0 l/m 5,8 km/h (2 Bft) W-SW 247 5,0 C 7,5 C
22.04.2012 05:46 8,2 C 81 % 1003,4 hPa 0,5 l/m 4,0 km/h (1 Bft) SW 225 5,1 C 8,2 C
22.04.2012 05:51 8,2 C 81 % 1003,4 hPa 0,0 l/m 4,0 km/h (1 Bft) S-SW 202 5,1 C 8,2 C
22.04.2012 05:56 8,2 C 81 % 1003,5 hPa 0,0 l/m 2,2 km/h (1 Bft) SW 225 5,1 C 8,2 C
22.04.2012 06:01 8,2 C 82 % 1003,5 hPa 0,0 l/m 6,5 km/h (2 Bft) W-SW 247 5,3 C 7,3 C
22.04.2012 06:06 8,2 C 82 % 1003,4 hPa 0,0 l/m 6,1 km/h (2 Bft) SW 225 5,3 C 7,4 C
22.04.2012 06:11 8,2 C 82 % 1003,6 hPa 0,0 l/m 3,2 km/h (1 Bft) S-SW 202 5,3 C 8,2 C
22.04.2012 06:16 8,2 C 82 % 1003,5 hPa 0,0 l/m 3,2 km/h (1 Bft) S 180 5,3 C 8,2 C
22.04.2012 06:21 8,2 C 82 % 1003,5 hPa 0,0 l/m 3,6 km/h (1 Bft) S-SW 202 5,3 C 8,2 C
22.04.2012 06:26 8,3 C 82 % 1003,5 hPa 0,0 l/m 2,5 km/h (1 Bft) S-SW 202 5,4 C 8,3 C
22.04.2012 06:31 8,3 C 81 % 1003,5 hPa 0,0 l/m 4,3 km/h (1 Bft) S-SW 202 5,2 C 8,3 C
22.04.2012 06:36 8,3 C 81 % 1003,4 hPa 0,0 l/m 2,9 km/h (1 Bft) SW 225 5,2 C 8,3 C
22.04.2012 06:41 8,3 C 81 % 1003,4 hPa 0,0 l/m 3,2 km/h (1 Bft) W-SW 247 5,2 C 8,3 C
22.04.2012 06:46 8,3 C 81 % 1003,5 hPa 0,0 l/m 3,2 km/h (1 Bft) W-SW 247 5,2 C 8,3 C
22.04.2012 06:51 8,3 C 81 % 1003,6 hPa 0,0 l/m 0,0 km/h (0 Bft) SW 225 5,2 C 8,3 C
22.04.2012 06:56 8,3 C 81 % 1003,7 hPa 0,0 l/m 2,9 km/h (1 Bft) SW 225 5,2 C 8,3 C
22.04.2012 07:01 8,4 C 81 % 1003,8 hPa 0,0 l/m 5,0 km/h (1 Bft) W-SW 247 5,3 C 7,9 C
22.04.2012 07:06 8,4 C 80 % 1003,8 hPa 0,0 l/m 6,5 km/h (2 Bft) W-SW 247 5,2 C 7,5 C
22.04.2012 07:11 8,4 C 80 % 1004,0 hPa 0,0 l/m 12,2 km/h (2 Bft) W-SW 247 5,2 C 6,3 C
22.04.2012 07:16 8,3 C 80 % 1004,0 hPa 0,0 l/m 4,7 km/h (1 Bft) W-SW 247 5,1 C 7,9 C
22.04.2012 07:21 8,3 C 80 % 1004,1 hPa 0,0 l/m 3,6 km/h (1 Bft) W-SW 247 5,1 C 8,3 C
22.04.2012 07:26 8,3 C 80 % 1004,2 hPa 0,0 l/m 5,8 km/h (2 Bft) S 180 5,1 C 7,6 C
22.04.2012 07:31 8,3 C 80 % 1004,0 hPa 0,0 l/m 2,9 km/h (1 Bft) W 270 5,1 C 8,3 C
22.04.2012 07:36 8,2 C 80 % 1004,2 hPa 0,0 l/m 7,6 km/h (2 Bft) S-SW 202 5,0 C 7,0 C
22.04.2012 07:41 8,2 C 80 % 1004,3 hPa 0,0 l/m 13,0 km/h (3 Bft) W-SW 247 5,0 C 6,0 C
22.04.2012 07:46 8,2 C 80 % 1004,4 hPa 0,0 l/m 5,4 km/h (1 Bft) S-SW 202 5,0 C 7,6 C
22.04.2012 07:51 8,2 C 80 % 1004,4 hPa 0,0 l/m 8,6 km/h (2 Bft) S-SW 202 5,0 C 6,8 C
22.04.2012 07:56 8,3 C 80 % 1004,4 hPa 0,0 l/m 11,9 km/h (2 Bft) W 270 5,1 C 6,3 C
22.04.2012 08:01 8,3 C 80 % 1004,5 hPa 0,0 l/m 6,1 km/h (2 Bft) W 270 5,1 C 7,5 C
22.04.2012 08:06 8,4 C 80 % 1004,6 hPa 0,0 l/m 8,6 km/h (2 Bft) W-SW 247 5,2 C 7,0 C
22.04.2012 08:11 8,4 C 80 % 1004,5 hPa 0,0 l/m 7,9 km/h (2 Bft) SW 225 5,2 C 7,2 C
22.04.2012 08:16 8,5 C 80 % 1004,5 hPa 0,0 l/m 9,4 km/h (2 Bft) W-NW 292 5,3 C 7,0 C
22.04.2012 08:21 8,6 C 79 % 1004,5 hPa 0,0 l/m 14,0 km/h (3 Bft) SW 225 5,2 C 6,3 C
22.04.2012 08:26 8,7 C 79 % 1004,6 hPa 0,0 l/m 12,2 km/h (2 Bft) W 270 5,3 C 6,7 C
22.04.2012 08:31 8,8 C 78 % 1004,7 hPa 0,0 l/m 9,4 km/h (2 Bft) SW 225 5,2 C 7,3 C
22.04.2012 08:36 8,8 C 78 % 1004,5 hPa 0,0 l/m 5,8 km/h (2 Bft) W-SW 247 5,2 C 8,1 C
22.04.2012 08:41 8,9 C 78 % 1004,5 hPa 0,0 l/m 10,4 km/h (2 Bft) W-SW 247 5,3 C 7,2 C
22.04.2012 08:46 9,0 C 77 % 1004,7 hPa 0,0 l/m 8,3 km/h (2 Bft) W-SW 247 5,2 C 7,8 C
22.04.2012 08:51 9,0 C 77 % 1004,8 hPa 0,0 l/m 4,7 km/h (1 Bft) W-SW 247 5,2 C 8,7 C
22.04.2012 08:56 9,1 C 77 % 1004,8 hPa 0,0 l/m 10,4 km/h (2 Bft) W-SW 247 5,3 C 7,5 C
22.04.2012 09:01 9,0 C 77 % 1004,9 hPa 0,0 l/m 22,0 km/h (4 Bft) W 270 5,2 C 5,9 C
22.04.2012 09:06 9,1 C 76 % 1005,0 hPa 0,0 l/m 9,7 km/h (2 Bft) W 270 5,1 C 7,6 C
22.04.2012 09:11 9,0 C 75 % 1005,0 hPa 0,0 l/m 8,3 km/h (2 Bft) W 270 4,8 C 7,8 C
22.04.2012 09:16 9,0 C 75 % 1005,1 hPa 0,0 l/m 6,1 km/h (2 Bft) W-SW 247 4,8 C 8,3 C
22.04.2012 09:21 8,9 C 75 % 1005,2 hPa 0,0 l/m 10,4 km/h (2 Bft) W-SW 247 4,7 C 7,2 C
22.04.2012 09:26 8,8 C 76 % 1005,1 hPa 0,0 l/m 13,0 km/h (3 Bft) W-SW 247 4,8 C 6,7 C
22.04.2012 09:31 8,7 C 77 % 1005,3 hPa 0,0 l/m 9,0 km/h (2 Bft) W 270 4,9 C 7,3 C
22.04.2012 09:36 8,6 C 77 % 1005,2 hPa 0,0 l/m 6,5 km/h (2 Bft) W-SW 247 4,8 C 7,7 C
22.04.2012 09:41 8,6 C 77 % 1005,2 hPa 0,0 l/m 3,6 km/h (1 Bft) W-SW 247 4,8 C 8,6 C
22.04.2012 09:46 8,9 C 78 % 1005,4 hPa 0,0 l/m 5,4 km/h (1 Bft) S-SW 202 5,3 C 8,4 C
22.04.2012 09:51 9,2 C 79 % 1005,4 hPa 0,0 l/m 10,8 km/h (2 Bft) W-SW 247 5,8 C 7,5 C
22.04.2012 09:56 9,4 C 78 % 1005,3 hPa 0,0 l/m 2,9 km/h (1 Bft) W 270 5,8 C 9,4 C
22.04.2012 10:01 9,6 C 78 % 1005,4 hPa 0,0 l/m 11,5 km/h (2 Bft) W-SW 247 6,0 C 7,9 C
22.04.2012 10:06 9,9 C 76 % 1005,6 hPa 0,0 l/m 9,7 km/h (2 Bft) W 270 5,9 C 8,6 C
22.04.2012 10:11 10,1 C 75 % 1005,6 hPa 0,0 l/m 12,2 km/h (2 Bft) W 270 5,9 C 10,1 C
22.04.2012 10:16 10,1 C 74 % 1005,6 hPa 0,0 l/m 11,5 km/h (2 Bft) W-SW 247 5,7 C 10,1 C
22.04.2012 10:21 10,1 C 73 % 1005,6 hPa 0,0 l/m 6,1 km/h (2 Bft) W 270 5,5 C 10,1 C
22.04.2012 10:26 10,4 C 74 % 1005,6 hPa 0,0 l/m 2,2 km/h (1 Bft) W-SW 247 6,0 C 10,4 C
22.04.2012 10:31 10,8 C 72 % 1005,7 hPa 0,0 l/m 11,2 km/h (2 Bft) S-SW 202 6,0 C 10,8 C
22.04.2012 10:36 10,9 C 72 % 1005,6 hPa 0,0 l/m 4,0 km/h (1 Bft) W 270 6,1 C 10,9 C
22.04.2012 10:41 10,9 C 70 % 1005,6 hPa 0,0 l/m 9,4 km/h (2 Bft) W-SW 247 5,6 C 10,9 C
22.04.2012 10:46 10,8 C 70 % 1005,6 hPa 0,0 l/m 11,5 km/h (2 Bft) W-SW 247 5,6 C 10,8 C
22.04.2012 10:51 10,6 C 70 % 1005,7 hPa 0,0 l/m 2,2 km/h (1 Bft) W-SW 247 5,4 C 10,6 C
22.04.2012 10:56 10,6 C 70 % 1005,7 hPa 0,0 l/m 5,8 km/h (2 Bft) S-SW 202 5,4 C 10,6 C
22.04.2012 11:01 10,6 C 70 % 1005,8 hPa 0,0 l/m 10,1 km/h (2 Bft) W-SW 247 5,4 C 10,6 C
22.04.2012 11:06 10,6 C 70 % 1005,8 hPa 0,0 l/m 7,9 km/h (2 Bft) W-SW 247 5,4 C 10,6 C
22.04.2012 11:11 10,6 C 70 % 1005,9 hPa 0,0 l/m 25,2 km/h (4 Bft) W-SW 247 5,4 C 10,6 C
22.04.2012 11:16 10,6 C 68 % 1005,8 hPa 0,0 l/m 7,6 km/h (2 Bft) SW 225 4,9 C 10,6 C
22.04.2012 11:21 10,6 C 68 % 1005,8 hPa 0,0 l/m 11,2 km/h (2 Bft) SW 225 4,9 C 10,6 C
22.04.2012 11:26 10,7 C 68 % 1005,9 hPa 0,0 l/m 5,0 km/h (1 Bft) S-SW 202 5,0 C 10,7 C
22.04.2012 11:31 11,0 C 67 % 1005,8 hPa 0,0 l/m 6,1 km/h (2 Bft) S 180 5,1 C 11,0 C
22.04.2012 11:36 11,6 C 66 % 1005,8 hPa 0,0 l/m 11,5 km/h (2 Bft) W 270 5,5 C 11,6 C
22.04.2012 11:41 11,9 C 65 % 1005,8 hPa 0,0 l/m 6,5 km/h (2 Bft) W-SW 247 5,5 C 11,9 C
22.04.2012 11:46 12,0 C 63 % 1005,8 hPa 0,0 l/m 5,0 km/h (1 Bft) W-NW 292 5,2 C 12,0 C
22.04.2012 11:51 11,9 C 63 % 1005,8 hPa 0,0 l/m 17,6 km/h (3 Bft) W 270 5,1 C 11,9 C
22.04.2012 11:56 11,9 C 63 % 1005,9 hPa 0,0 l/m 17,3 km/h (3 Bft) SW 225 5,1 C 11,9 C
22.04.2012 12:01 11,9 C 62 % 1005,9 hPa 0,0 l/m 10,4 km/h (2 Bft) W 270 4,9 C 11,9 C
22.04.2012 12:06 11,9 C 62 % 1005,9 hPa 0,0 l/m 13,0 km/h (3 Bft) W 270 4,9 C 11,9 C
22.04.2012 12:11 12,2 C 62 % 1005,9 hPa 0,0 l/m 11,2 km/h (2 Bft) S-SW 202 5,1 C 12,2 C
22.04.2012 12:16 12,3 C 62 % 1006,0 hPa 0,0 l/m 10,4 km/h (2 Bft) S-SW 202 5,2 C 12,3 C
22.04.2012 12:21 12,4 C 62 % 1006,0 hPa 0,0 l/m 18,4 km/h (3 Bft) W-SW 247 5,3 C 12,4 C
22.04.2012 12:26 12,2 C 61 % 1006,0 hPa 0,0 l/m 8,6 km/h (2 Bft) W-SW 247 4,9 C 12,2 C
22.04.2012 12:31 12,2 C 62 % 1006,0 hPa 0,0 l/m 14,8 km/h (3 Bft) W-SW 247 5,1 C 12,2 C
22.04.2012 12:36 12,2 C 62 % 1006,2 hPa 0,0 l/m 22,7 km/h (4 Bft) W-SW 247 5,1 C 12,2 C
22.04.2012 12:41 12,2 C 61 % 1006,3 hPa 0,0 l/m 22,0 km/h (4 Bft) W-SW 247 4,9 C 12,2 C
22.04.2012 12:46 12,1 C 61 % 1006,4 hPa 0,0 l/m 10,4 km/h (2 Bft) W-SW 247 4,8 C 12,1 C
22.04.2012 12:51 11,9 C 62 % 1006,4 hPa 0,0 l/m 16,2 km/h (3 Bft) W-SW 247 4,9 C 11,9 C
22.04.2012 12:56 11,8 C 62 % 1006,5 hPa 0,0 l/m 11,5 km/h (2 Bft) W 270 4,8 C 11,8 C
22.04.2012 13:01 11,8 C 63 % 1006,6 hPa 0,0 l/m 6,5 km/h (2 Bft) SW 225 5,0 C 11,8 C
22.04.2012 13:06 11,8 C 63 % 1006,6 hPa 0,0 l/m 15,5 km/h (3 Bft) W-SW 247 5,0 C 11,8 C
22.04.2012 13:11 11,9 C 63 % 1006,7 hPa 0,0 l/m 9,0 km/h (2 Bft) W 270 5,1 C 11,9 C
22.04.2012 13:16 11,9 C 62 % 1006,7 hPa 0,0 l/m 15,5 km/h (3 Bft) SW 225 4,9 C 11,9 C
22.04.2012 13:21 12,0 C 62 % 1006,7 hPa 0,0 l/m 12,6 km/h (3 Bft) W-SW 247 4,9 C 12,0 C
22.04.2012 13:26 12,1 C 62 % 1006,6 hPa 0,0 l/m 8,3 km/h (2 Bft) W-SW 247 5,0 C 12,1 C
22.04.2012 13:31 12,2 C 62 % 1006,7 hPa 0,0 l/m 9,4 km/h (2 Bft) S 180 5,1 C 12,2 C
22.04.2012 13:36 12,3 C 62 % 1006,4 hPa 0,0 l/m 13,7 km/h (3 Bft) W-NW 292 5,2 C 12,3 C
22.04.2012 13:41 12,4 C 61 % 1006,6 hPa 0,0 l/m 8,3 km/h (2 Bft) S-SW 202 5,1 C 12,4 C
22.04.2012 13:46 12,4 C 61 % 1006,8 hPa 0,0 l/m 10,8 km/h (2 Bft) W-SW 247 5,1 C 12,4 C
22.04.2012 13:51 12,3 C 61 % 1006,7 hPa 0,0 l/m 5,0 km/h (1 Bft) SW 225 5,0 C 12,3 C
22.04.2012 13:56 12,2 C 60 % 1006,8 hPa 0,0 l/m 5,8 km/h (2 Bft) W-SW 247 4,7 C 12,2 C
22.04.2012 14:01 12,1 C 61 % 1006,6 hPa 0,0 l/m 8,3 km/h (2 Bft) W-SW 247 4,8 C 12,1 C
22.04.2012 14:06 12,1 C 61 % 1006,7 hPa 0,0 l/m 8,6 km/h (2 Bft) W-SW 247 4,8 C 12,1 C
22.04.2012 14:11 12,2 C 61 % 1006,4 hPa 0,0 l/m 6,1 km/h (2 Bft) W 270 4,9 C 12,2 C
22.04.2012 14:16 12,4 C 61 % 1006,4 hPa 0,0 l/m 3,2 km/h (1 Bft) W-NW 292 5,1 C 12,4 C
22.04.2012 14:21 12,9 C 61 % 1006,4 hPa 0,0 l/m 6,1 km/h (2 Bft) S 180 5,6 C 12,9 C
22.04.2012 14:26 13,5 C 60 % 1006,4 hPa 0,0 l/m 7,2 km/h (2 Bft) S-SW 202 5,9 C 13,5 C
22.04.2012 14:31 13,8 C 58 % 1006,4 hPa 0,0 l/m 6,1 km/h (2 Bft) S-SO 157 5,7 C 13,8 C
22.04.2012 14:36 13,9 C 57 % 1006,1 hPa 0,0 l/m 5,8 km/h (2 Bft) W-SW 247 5,5 C 13,9 C
22.04.2012 14:41 13,9 C 56 % 1006,1 hPa 0,0 l/m 10,1 km/h (2 Bft) S 180 5,3 C 13,9 C
22.04.2012 14:46 13,8 C 56 % 1006,0 hPa 0,0 l/m 10,8 km/h (2 Bft) W-SW 247 5,2 C 13,8 C
22.04.2012 14:51 13,6 C 56 % 1006,3 hPa 0,0 l/m 11,2 km/h (2 Bft) W 270 5,0 C 13,6 C
22.04.2012 14:56 13,8 C 56 % 1006,2 hPa 0,0 l/m 11,5 km/h (2 Bft) W-SW 247 5,2 C 13,8 C
22.04.2012 15:01 13,8 C 56 % 1006,3 hPa 0,0 l/m 5,0 km/h (1 Bft) W-SW 247 5,2 C 13,8 C
22.04.2012 15:06 13,8 C 56 % 1006,2 hPa 0,0 l/m 9,7 km/h (2 Bft) S-SW 202 5,2 C 13,8 C
22.04.2012 15:11 13,9 C 56 % 1006,0 hPa 0,0 l/m 4,7 km/h (1 Bft) W-SW 247 5,3 C 13,9 C
22.04.2012 15:16 14,1 C 55 % 1006,1 hPa 0,0 l/m 11,2 km/h (2 Bft) W-SW 247 5,2 C 14,1 C
22.04.2012 15:21 14,2 C 55 % 1006,1 hPa 0,0 l/m 3,6 km/h (1 Bft) W-SW 247 5,3 C 14,2 C
22.04.2012 15:26 14,3 C 54 % 1006,0 hPa 0,0 l/m 13,0 km/h (3 Bft) S-SW 202 5,1 C 14,3 C
22.04.2012 15:31 14,1 C 52 % 1006,1 hPa 0,0 l/m 11,9 km/h (2 Bft) W-NW 292 4,4 C 14,1 C
22.04.2012 15:36 14,0 C 53 % 1006,1 hPa 0,0 l/m 5,4 km/h (1 Bft) S 180 4,6 C 14,0 C
22.04.2012 15:41 14,2 C 53 % 1005,9 hPa 0,0 l/m 7,9 km/h (2 Bft) SW 225 4,8 C 14,2 C
22.04.2012 15:46 14,6 C 52 % 1006,0 hPa 0,0 l/m 9,7 km/h (2 Bft) W-SW 247 4,9 C 14,6 C
22.04.2012 15:51 14,9 C 50 % 1005,9 hPa 0,0 l/m 12,6 km/h (3 Bft) SW 225 4,6 C 14,9 C
22.04.2012 15:56 14,9 C 50 % 1005,9 hPa 0,0 l/m 6,1 km/h (2 Bft) S 180 4,6 C 14,9 C
22.04.2012 16:01 14,9 C 50 % 1006,1 hPa 0,0 l/m 12,6 km/h (3 Bft) W-SW 247 4,6 C 14,9 C
22.04.2012 16:06 14,9 C 50 % 1006,1 hPa 0,0 l/m 4,3 km/h (1 Bft) W 270 4,6 C 14,9 C
22.04.2012 16:11 14,9 C 50 % 1006,1 hPa 0,0 l/m 10,4 km/h (2 Bft) W 270 4,6 C 14,9 C
22.04.2012 16:16 14,9 C 49 % 1006,2 hPa 0,0 l/m 4,0 km/h (1 Bft) W-SW 247 4,3 C 14,9 C
22.04.2012 16:21 14,8 C 49 % 1006,2 hPa 0,0 l/m 5,8 km/h (2 Bft) W 270 4,2 C 14,8 C
22.04.2012 16:26 14,6 C 50 % 1006,2 hPa 0,0 l/m 7,6 km/h (2 Bft) W 270 4,3 C 14,6 C
22.04.2012 16:31 14,6 C 51 % 1006,2 hPa 0,0 l/m 7,9 km/h (2 Bft) SW 225 4,6 C 14,6 C
22.04.2012 16:36 14,8 C 51 % 1006,2 hPa 0,0 l/m 14,8 km/h (3 Bft) W-SW 247 4,8 C 14,8 C
22.04.2012 16:41 14,9 C 51 % 1006,2 hPa 0,0 l/m 8,3 km/h (2 Bft) W-SW 247 4,9 C 14,9 C
22.04.2012 16:46 14,8 C 50 % 1006,2 hPa 0,0 l/m 10,4 km/h (2 Bft) SW 225 4,5 C 14,8 C
22.04.2012 16:51 14,7 C 51 % 1006,2 hPa 0,0 l/m 5,0 km/h (1 Bft) W-SW 247 4,7 C 14,7 C
22.04.2012 16:56 14,8 C 51 % 1006,3 hPa 0,0 l/m 5,4 km/h (1 Bft) SW 225 4,8 C 14,8 C
22.04.2012 17:01 14,8 C 51 % 1006,3 hPa 0,0 l/m 4,0 km/h (1 Bft) W-NW 292 4,8 C 14,8 C
22.04.2012 17:06 14,6 C 51 % 1006,2 hPa 0,0 l/m 8,6 km/h (2 Bft) W-SW 247 4,6 C 14,6 C
22.04.2012 17:11 14,4 C 51 % 1006,4 hPa 0,0 l/m 6,1 km/h (2 Bft) W-SW 247 4,4 C 14,4 C
22.04.2012 17:16 14,3 C 52 % 1006,3 hPa 0,0 l/m 4,7 km/h (1 Bft) W-SW 247 4,6 C 14,3 C
22.04.2012 17:21 14,2 C 53 % 1006,3 hPa 0,0 l/m 1,1 km/h (1 Bft) S-SO 157 4,8 C 14,2 C
22.04.2012 17:26 14,1 C 53 % 1006,3 hPa 0,0 l/m 2,2 km/h (1 Bft) SO 135 4,7 C 14,1 C
22.04.2012 17:31 13,9 C 53 % 1006,3 hPa 0,0 l/m 14,4 km/h (3 Bft) W-SW 247 4,5 C 13,9 C
22.04.2012 17:36 13,8 C 53 % 1006,3 hPa 0,0 l/m 20,9 km/h (4 Bft) SW 225 4,4 C 13,8 C
22.04.2012 17:41 13,4 C 54 % 1006,4 hPa 0,0 l/m 20,5 km/h (4 Bft) W-SW 247 4,3 C 13,4 C
22.04.2012 17:46 13,2 C 54 % 1006,5 hPa 0,0 l/m 13,7 km/h (3 Bft) SW 225 4,1 C 13,2 C
22.04.2012 17:51 13,1 C 55 % 1006,3 hPa 0,0 l/m 11,9 km/h (2 Bft) S-SW 202 4,3 C 13,1 C
22.04.2012 17:56 13,3 C 55 % 1006,2 hPa 0,0 l/m 10,8 km/h (2 Bft) S-SW 202 4,5 C 13,3 C
22.04.2012 18:01 13,8 C 55 % 1006,5 hPa 0,0 l/m 8,3 km/h (2 Bft) W-SW 247 4,9 C 13,8 C
22.04.2012 18:06 14,0 C 53 % 1006,4 hPa 0,0 l/m 13,7 km/h (3 Bft) W-SW 247 4,6 C 14,0 C
22.04.2012 18:11 13,9 C 52 % 1006,5 hPa 0,0 l/m 12,2 km/h (2 Bft) S-SW 202 4,2 C 13,9 C
22.04.2012 18:16 13,9 C 52 % 1006,6 hPa 0,0 l/m 14,0 km/h (3 Bft) S-SO 157 4,2 C 13,9 C
22.04.2012 18:21 13,8 C 52 % 1006,5 hPa 0,0 l/m 18,7 km/h (3 Bft) SW 225 4,1 C 13,8 C
22.04.2012 18:26 13,8 C 52 % 1006,4 hPa 0,0 l/m 6,8 km/h (2 Bft) W-SW 247 4,1 C 13,8 C
22.04.2012 18:31 13,9 C 52 % 1006,5 hPa 0,0 l/m 9,4 km/h (2 Bft) W-SW 247 4,2 C 13,9 C
22.04.2012 18:36 14,1 C 52 % 1006,5 hPa 0,0 l/m 14,0 km/h (3 Bft) SW 225 4,4 C 14,1 C
22.04.2012 18:41 14,0 C 52 % 1006,5 hPa 0,0 l/m 14,0 km/h (3 Bft) SW 225 4,3 C 14,0 C
22.04.2012 18:46 14,1 C 52 % 1006,5 hPa 0,0 l/m 7,2 km/h (2 Bft) S 180 4,4 C 14,1 C
22.04.2012 18:51 14,1 C 53 % 1006,5 hPa 0,0 l/m 15,1 km/h (3 Bft) SW 225 4,7 C 14,1 C
22.04.2012 18:56 14,0 C 52 % 1006,5 hPa 0,0 l/m 14,4 km/h (3 Bft) SW 225 4,3 C 14,0 C
22.04.2012 19:01 13,9 C 52 % 1006,6 hPa 0,0 l/m 12,6 km/h (3 Bft) SW 225 4,2 C 13,9 C
22.04.2012 19:06 13,9 C 53 % 1006,5 hPa 0,0 l/m 10,8 km/h (2 Bft) W-SW 247 4,5 C 13,9 C
22.04.2012 19:11 13,9 C 54 % 1006,7 hPa 0,0 l/m 6,5 km/h (2 Bft) W 270 4,7 C 13,9 C
22.04.2012 19:16 13,8 C 52 % 1006,7 hPa 0,0 l/m 9,7 km/h (2 Bft) W-SW 247 4,1 C 13,8 C
22.04.2012 19:21 13,5 C 52 % 1006,7 hPa 0,0 l/m 8,6 km/h (2 Bft) S-SW 202 3,8 C 13,5 C
22.04.2012 19:26 13,3 C 52 % 1006,7 hPa 0,0 l/m 5,8 km/h (2 Bft) SW 225 3,7 C 13,3 C
22.04.2012 19:31 13,1 C 52 % 1006,7 hPa 0,0 l/m 4,3 km/h (1 Bft) W 270 3,5 C 13,1 C
22.04.2012 19:36 12,9 C 53 % 1006,7 hPa 0,0 l/m 4,0 km/h (1 Bft) SW 225 3,6 C 12,9 C
22.04.2012 19:41 12,9 C 53 % 1006,7 hPa 0,0 l/m 7,2 km/h (2 Bft) SO 135 3,6 C 12,9 C
22.04.2012 19:46 12,8 C 54 % 1006,7 hPa 0,0 l/m 6,8 km/h (2 Bft) S-SW 202 3,7 C 12,8 C
22.04.2012 19:51 12,6 C 54 % 1006,7 hPa 0,0 l/m 5,0 km/h (1 Bft) SO 135 3,5 C 12,6 C
22.04.2012 19:56 12,5 C 55 % 1006,7 hPa 0,0 l/m 4,0 km/h (1 Bft) S-SW 202 3,7 C 12,5 C
22.04.2012 20:01 12,4 C 55 % 1006,7 hPa 0,0 l/m 4,7 km/h (1 Bft) W-SW 247 3,6 C 12,4 C
22.04.2012 20:06 12,4 C 55 % 1006,7 hPa 0,0 l/m 1,1 km/h (1 Bft) S-SO 157 3,6 C 12,4 C
22.04.2012 20:11 12,3 C 55 % 1006,6 hPa 0,0 l/m 0,0 km/h (0 Bft) S-SW 202 3,5 C 12,3 C
22.04.2012 20:16 12,1 C 56 % 1006,7 hPa 0,0 l/m 1,4 km/h (1 Bft) S-SW 202 3,6 C 12,1 C
22.04.2012 20:21 12,0 C 56 % 1006,9 hPa 0,0 l/m 2,5 km/h (1 Bft) S-SW 202 3,5 C 12,0 C
22.04.2012 20:26 11,9 C 57 % 1006,9 hPa 0,0 l/m 0,0 km/h (0 Bft) S-SW 202 3,7 C 11,9 C
22.04.2012 20:31 11,8 C 57 % 1006,9 hPa 0,0 l/m 1,1 km/h (1 Bft) W-SW 247 3,6 C 11,8 C
22.04.2012 20:36 11,6 C 57 % 1006,9 hPa 0,0 l/m 1,4 km/h (1 Bft) S-SW 202 3,4 C 11,6 C
22.04.2012 20:41 11,5 C 57 % 1006,9 hPa 0,0 l/m 1,8 km/h (1 Bft) S 180 3,3 C 11,5 C
22.04.2012 20:46 11,4 C 58 % 1007,0 hPa 0,0 l/m 0,0 km/h (0 Bft) W-SW 247 3,4 C 11,4 C
22.04.2012 20:51 11,3 C 58 % 1007,0 hPa 0,0 l/m 3,2 km/h (1 Bft) SW 225 3,3 C 11,3 C
22.04.2012 20:56 11,2 C 59 % 1007,0 hPa 0,0 l/m 2,9 km/h (1 Bft) SW 225 3,5 C 11,2 C
22.04.2012 21:01 11,1 C 59 % 1007,0 hPa 0,0 l/m 4,3 km/h (1 Bft) SO 135 3,4 C 11,1 C
22.04.2012 21:06 10,9 C 59 % 1007,1 hPa 0,0 l/m 2,2 km/h (1 Bft) S-SO 157 3,2 C 10,9 C
22.04.2012 21:11 10,8 C 60 % 1007,1 hPa 0,0 l/m 3,2 km/h (1 Bft) S-SO 157 3,4 C 10,8 C
22.04.2012 21:16 10,7 C 60 % 1007,1 hPa 0,0 l/m 5,8 km/h (2 Bft) S 180 3,3 C 10,7 C
22.04.2012 21:21 10,5 C 60 % 1007,1 hPa 0,0 l/m 0,0 km/h (0 Bft) SO 135 3,1 C 10,5 C
22.04.2012 21:26 10,4 C 61 % 1007,2 hPa 0,0 l/m 0,0 km/h (0 Bft) S-SO 157 3,2 C 10,4 C
22.04.2012 21:31 10,2 C 61 % 1007,0 hPa 0,0 l/m 2,2 km/h (1 Bft) S 180 3,0 C 10,2 C
22.04.2012 21:36 10,1 C 61 % 1007,0 hPa 0,0 l/m 0,0 km/h (0 Bft) SO 135 2,9 C 10,1 C
22.04.2012 21:41 9,9 C 62 % 1007,1 hPa 0,0 l/m 3,6 km/h (1 Bft) S 180 3,0 C 9,9 C
22.04.2012 21:46 9,9 C 62 % 1007,3 hPa 0,0 l/m 4,0 km/h (1 Bft) S-SO 157 3,0 C 9,9 C
22.04.2012 21:51 9,8 C 63 % 1007,4 hPa 0,0 l/m 0,0 km/h (0 Bft) S-SO 157 3,1 C 9,8 C
22.04.2012 21:56 9,7 C 63 % 1007,3 hPa 0,0 l/m 0,0 km/h (0 Bft) S-SO 157 3,0 C 9,7 C
22.04.2012 22:01 9,6 C 64 % 1007,3 hPa 0,0 l/m 4,3 km/h (1 Bft) S 180 3,1 C 9,6 C
22.04.2012 22:06 9,5 C 64 % 1007,3 hPa 0,0 l/m 0,0 km/h (0 Bft) S 180 3,0 C 9,5 C
22.04.2012 22:11 9,4 C 64 % 1007,3 hPa 0,0 l/m 2,5 km/h (1 Bft) S-SO 157 2,9 C 9,4 C
22.04.2012 22:16 9,4 C 64 % 1007,4 hPa 0,0 l/m 7,6 km/h (2 Bft) S 180 2,9 C 8,4 C
22.04.2012 22:21 9,3 C 64 % 1007,4 hPa 0,0 l/m 2,9 km/h (1 Bft) S 180 2,8 C 9,3 C
22.04.2012 22:26 9,3 C 65 % 1007,5 hPa 0,0 l/m 1,8 km/h (1 Bft) S-SO 157 3,1 C 9,3 C
22.04.2012 22:31 9,2 C 65 % 1007,5 hPa 0,0 l/m 0,0 km/h (0 Bft) S-SO 157 3,0 C 9,2 C
22.04.2012 22:36 9,1 C 66 % 1007,3 hPa 0,0 l/m 0,0 km/h (0 Bft) S 180 3,1 C 9,1 C
22.04.2012 22:41 8,9 C 66 % 1007,4 hPa 0,0 l/m 1,4 km/h (1 Bft) S-SO 157 2,9 C 8,9 C
22.04.2012 22:46 8,9 C 66 % 1007,4 hPa 0,0 l/m 2,5 km/h (1 Bft) S 180 2,9 C 8,9 C
22.04.2012 22:51 8,8 C 66 % 1007,5 hPa 0,0 l/m 1,8 km/h (1 Bft) S-SW 202 2,8 C 8,8 C
22.04.2012 22:56 8,8 C 66 % 1007,4 hPa 0,0 l/m 4,0 km/h (1 Bft) S 180 2,8 C 8,8 C
22.04.2012 23:01 8,8 C 67 % 1007,4 hPa 0,0 l/m 1,8 km/h (1 Bft) S 180 3,0 C 8,8 C
22.04.2012 23:06 8,6 C 67 % 1007,5 hPa 0,0 l/m 3,6 km/h (1 Bft) SO 135 2,8 C 8,6 C
22.04.2012 23:11 8,5 C 67 % 1007,4 hPa 0,0 l/m 3,6 km/h (1 Bft) SO 135 2,7 C 8,5 C
22.04.2012 23:16 8,4 C 67 % 1007,5 hPa 0,0 l/m 3,6 km/h (1 Bft) S 180 2,6 C 8,4 C
22.04.2012 23:21 8,3 C 67 % 1007,4 hPa 0,0 l/m 0,0 km/h (0 Bft) SO 135 2,5 C 8,3 C
22.04.2012 23:26 8,2 C 67 % 1007,4 hPa 0,0 l/m 2,9 km/h (1 Bft) S 180 2,4 C 8,2 C
22.04.2012 23:31 8,2 C 68 % 1007,4 hPa 0,0 l/m 5,0 km/h (1 Bft) S 180 2,7 C 7,7 C
22.04.2012 23:36 8,2 C 68 % 1007,4 hPa 0,0 l/m 6,1 km/h (2 Bft) S-SO 157 2,7 C 7,4 C
22.04.2012 23:41 8,1 C 68 % 1007,6 hPa 0,0 l/m 3,6 km/h (1 Bft) S-SO 157 2,6 C 8,1 C
22.04.2012 23:46 8,1 C 68 % 1007,6 hPa 0,0 l/m 7,2 km/h (2 Bft) S-SW 202 2,6 C 7,0 C
22.04.2012 23:51 8,1 C 69 % 1007,6 hPa 0,0 l/m 3,2 km/h (1 Bft) S-SO 157 2,8 C 8,1 C
22.04.2012 23:56 8,0 C 69 % 1007,4 hPa 0,0 l/m 1,4 km/h (1 Bft) S 180 2,7 C 8,0 C
_ Min-Zeit 01:46 16:16 00:01 - 00:01 - - 23:26 09:01
Minimum _ 7,9 C 49 % 1002,4 hPa - 0,0 km/h (0 Bft) - - 2,4 C 5,9 C
_ Max-Zeit 15:51 06:01 23:41 05:46 11:11 - - 10:36 15:51
Maximum _ 14,9 C 82 % 1007,6 hPa 0,5 l/m 25,2 km/h
W-SW (4 Bft)
- - 6,1 C 14,9 C
Durchschnitt _ 10,5 C 67 % 1005,3 hPa #0,5 l/m 6,1 km/h (2 Bft) W-SW - 4,5 C 10,4 C
(c) by David Heller